Flugplatz Hahn (EDFH)

Hier findest Du alle Informationen zum Flugplatz Hahn (EDFH).

Informationen für Piloten zum Flugplatz Hahn

Hier findest Du alle relevanten Informationen, die Du als Pilot benötigst, um Hahn anzufliegen.

Flugplatz: Hahn ICAO-Code: EDFH
Frequenz Turm: 119,650 Mhz GAFOR Gebiet: 41
Frequenz Ground: 119,650 Mhz Mogas: nein
Platzrunde: - Landegebühr: -
Platzhöhe: - Sunrise: 07:16 Uhr UTC
Pisten: 03/21 - 2.745 m x , ASPH Sunset: 15:31 Uhr UTC

Mitglieder, die in Hahn fliegen

Flugwetter am Flugplatz Hahn

Die METAR Information stammen aus EDFH.

METAR Code:
2022/11/09 07:50
EDFH 090750Z 22011KT 180V240 9999 SCT025 11/09 Q1011

Temperatur: -1,5 °C Niederschlag: - Wind: 4,0 kt
Temperatur (min.): -1,8 °C Luftdruck: 1004 hPa Windrichtung: 30 °
Temperatur (max.): -0,4 °C Luftfeuchtigkeit: 88 % Bewölkung: 6/8

Flugschulen am Flugplatz Hahn

Am Flugplatz Hahn gibt es leider keine Flugschule.

Benachbarte Flugplätze und Flugschulen

Es gibt 21 weitere Flugplätze in einem Umkreis von 50 km um den Flugplatz Hahn.

Jetzt anmelden

Passwort vergessen

Umfrage Archiv

Sendet Ihr ADS-B und/oder FLARM?

Ja
84.6 %
Nein
15.4 %
Stimmen: 254 | Diskussion
Anzeige: Roland Aircraft
Statistik Alle Mitglieder

Aktuell sind 64 Besucher online, davon 1 Mitglied und 63 Gäste.


Mitglieder online:
Nordex 

Anzeige: ULPower Aero Engines Anzeige: EasyVFR